LiveATC.Net - Listen to live air traffic control over the Internet! Contact LiveATC.net for advertising information


ICAO: TNCA  IATA: AUA   Airport: Reina Beatrix International Airport
City: Oranjestad
Country: Aruba   Continent: South America
TNCA METAR Weather: TNCA 221300Z 13009KT 100V160 9999 SCT017TCU 29/26 Q1011 A2986 NOSIG
TNCA Flight Activity (FlightAware)
TNCA Twr/Apron/FIR
Feed Status: DOWN
Last heard on: 2014-08-21 18:12:03 (0 days 19 hours 33 minutes ago)
TNCA Twr/Apron/FIR Audio Archives
FacilityFrequency
Beatrix Ground (Apron)121.600
Beatrix Tower120.900
Beatrix Tower (secondary)118.000
Curacao Control127.100
Emergency/Guard121.500
Search/Rescue123.100

NOTES: OurAirports.com

NOTICE

Unauthorized use prohibited. See LiveATC.net Terms of Service


Find LiveATC Audio Streams


Airport/ARTCC Code

Frequency
(e.g., 124.400, 128.75)
Site-wide search

Browse LiveATC Feeds
LiveATC Coverage Map
Top 50 LiveATC Feeds
Bad Weather Areas

LiveATC FAQ
Offer a LiveATC Feed
Contact LiveATC.net
Press Inquiries

LiveATC on iPhone
LiveATC on Android

LiveATC Mobile
(Mobile browser)

ATC Audio Archives
Interesting Recordings

LiveATC Forums


Home Page
About LiveATC.net
Make a Donation
LiveATC Bookstore

Terms of Use
Privacy Policy

ATC/Radar Sites
U.S. ARTCC Freqs
Canadian Air Freqs

AIRMETs/SIGMETs

FAA Airport Status
Nat'l Airspace Status
Arrival Demand Charts


Server Software By:
Icecast.org
Liquidsoap

Please make a donation to help us keep growing!